Terminal Aerodrome Forecast
Issued by NWS

Home | Current Version | Previous Version | Text Only | Print | Product List | Glossary On
Versions: 1 2 3 4 5 6 7 8 9 10 11 12
000
FTUS44 KTSA 241720
TAFMLC
TAF
KMLC 241720Z 2418/2518 20005KT P6SM SKC
     FM242000 19007KT P6SM VCTS SCT050CB
     FM250200 15005KT P6SM SCT250 PROB30 2515/2518 5SM -TSRA
      BKN050CB=

USA.gov is the U.S. government's official web portal to all federal, state and local government web resources and services.